sensor_id;sensor_type;location;lat;lon;timestamp;temperature;humidity
68485;DHT22;55472;50.060;21.960;2022-09-29T00:00:17;12.90;70.60
68485;DHT22;55472;50.060;21.960;2022-09-29T00:03:04;12.90;70.80
68485;DHT22;55472;50.060;21.960;2022-09-29T00:05:31;12.90;71.00
68485;DHT22;55472;50.060;21.960;2022-09-29T00:07:57;12.90;71.60
68485;DHT22;55472;50.060;21.960;2022-09-29T00:10:23;12.90;71.80
68485;DHT22;55472;50.060;21.960;2022-09-29T00:12:49;12.90;72.10
68485;DHT22;55472;50.060;21.960;2022-09-29T00:15:15;12.90;71.90
68485;DHT22;55472;50.060;21.960;2022-09-29T00:17:41;13.00;71.90
68485;DHT22;55472;50.060;21.960;2022-09-29T00:20:07;13.00;72.20
68485;DHT22;55472;50.060;21.960;2022-09-29T00:22:34;13.00;72.70
68485;DHT22;55472;50.060;21.960;2022-09-29T00:24:59;12.90;72.70
68485;DHT22;55472;50.060;21.960;2022-09-29T00:27:26;12.90;71.80
68485;DHT22;55472;50.060;21.960;2022-09-29T00:29:51;12.90;72.40
68485;DHT22;55472;50.060;21.960;2022-09-29T00:32:17;12.90;72.20
68485;DHT22;55472;50.060;21.960;2022-09-29T00:34:43;12.90;71.70
68485;DHT22;55472;50.060;21.960;2022-09-29T00:37:09;12.90;71.80
68485;DHT22;55472;50.060;21.960;2022-09-29T00:39:35;12.80;72.50
68485;DHT22;55472;50.060;21.960;2022-09-29T00:42:01;12.80;72.80
68485;DHT22;55472;50.060;21.960;2022-09-29T00:47:34;12.90;73.20
68485;DHT22;55472;50.060;21.960;2022-09-29T00:50:04;12.80;73.80
68485;DHT22;55472;50.060;21.960;2022-09-29T00:52:42;12.80;73.50
68485;DHT22;55472;50.060;21.960;2022-09-29T00:55:37;12.80;73.50
68485;DHT22;55472;50.060;21.960;2022-09-29T01:00:52;12.80;74.50
68485;DHT22;55472;50.060;21.960;2022-09-29T01:03:21;12.80;75.20
68485;DHT22;55472;50.060;21.960;2022-09-29T01:05:53;12.80;75.90
68485;DHT22;55472;50.060;21.960;2022-09-29T01:08:27;12.80;76.70
68485;DHT22;55472;50.060;21.960;2022-09-29T01:10:59;12.70;77.60
68485;DHT22;55472;50.060;21.960;2022-09-29T01:13:27;12.70;78.10
68485;DHT22;55472;50.060;21.960;2022-09-29T01:15:54;12.70;78.80
68485;DHT22;55472;50.060;21.960;2022-09-29T01:18:20;12.70;79.30
68485;DHT22;55472;50.060;21.960;2022-09-29T01:20:55;12.60;80.10
68485;DHT22;55472;50.060;21.960;2022-09-29T01:23:37;12.60;80.60
68485;DHT22;55472;50.060;21.960;2022-09-29T01:26:23;12.60;80.90
68485;DHT22;55472;50.060;21.960;2022-09-29T01:31:56;12.60;81.40
68485;DHT22;55472;50.060;21.960;2022-09-29T01:37:49;12.60;82.30
68485;DHT22;55472;50.060;21.960;2022-09-29T01:40:31;12.50;82.80
68485;DHT22;55472;50.060;21.960;2022-09-29T01:46:08;12.50;83.50
68485;DHT22;55472;50.060;21.960;2022-09-29T01:48:43;12.50;83.90
68485;DHT22;55472;50.060;21.960;2022-09-29T01:51:16;12.50;84.10
68485;DHT22;55472;50.060;21.960;2022-09-29T01:53:49;12.50;84.30
68485;DHT22;55472;50.060;21.960;2022-09-29T01:56:23;12.50;84.60
68485;DHT22;55472;50.060;21.960;2022-09-29T01:59:00;12.50;85.00
68485;DHT22;55472;50.060;21.960;2022-09-29T02:01:33;12.50;85.50
68485;DHT22;55472;50.060;21.960;2022-09-29T02:04:08;12.50;85.50
68485;DHT22;55472;50.060;21.960;2022-09-29T02:06:44;12.50;85.80
68485;DHT22;55472;50.060;21.960;2022-09-29T02:09:20;12.40;85.80
68485;DHT22;55472;50.060;21.960;2022-09-29T02:11:50;12.30;86.40
68485;DHT22;55472;50.060;21.960;2022-09-29T02:14:25;12.40;86.70
68485;DHT22;55472;50.060;21.960;2022-09-29T02:20:09;12.30;87.20
68485;DHT22;55472;50.060;21.960;2022-09-29T02:22:36;12.30;87.10
68485;DHT22;55472;50.060;21.960;2022-09-29T02:25:04;12.30;87.50
68485;DHT22;55472;50.060;21.960;2022-09-29T02:27:33;12.30;87.30
68485;DHT22;55472;50.060;21.960;2022-09-29T02:30:00;12.30;87.00
68485;DHT22;55472;50.060;21.960;2022-09-29T02:32:26;12.20;87.40
68485;DHT22;55472;50.060;21.960;2022-09-29T02:34:54;12.20;87.30
68485;DHT22;55472;50.060;21.960;2022-09-29T02:37:46;12.20;87.70
68485;DHT22;55472;50.060;21.960;2022-09-29T02:40:36;12.20;88.00
68485;DHT22;55472;50.060;21.960;2022-09-29T02:54:48;12.10;89.10
68485;DHT22;55472;50.060;21.960;2022-09-29T03:00:14;12.10;89.60
68485;DHT22;55472;50.060;21.960;2022-09-29T03:02:42;12.10;89.80
68485;DHT22;55472;50.060;21.960;2022-09-29T03:05:15;12.10;89.30
68485;DHT22;55472;50.060;21.960;2022-09-29T03:07:43;12.00;90.40
68485;DHT22;55472;50.060;21.960;2022-09-29T03:10:10;12.10;90.40
68485;DHT22;55472;50.060;21.960;2022-09-29T03:12:37;12.10;90.10
68485;DHT22;55472;50.060;21.960;2022-09-29T03:15:04;12.10;90.00
68485;DHT22;55472;50.060;21.960;2022-09-29T03:17:32;12.00;90.20
68485;DHT22;55472;50.060;21.960;2022-09-29T03:19:58;12.10;90.00
68485;DHT22;55472;50.060;21.960;2022-09-29T03:22:24;12.10;90.10
68485;DHT22;55472;50.060;21.960;2022-09-29T03:24:51;12.10;90.00
68485;DHT22;55472;50.060;21.960;2022-09-29T03:27:17;12.10;90.10
68485;DHT22;55472;50.060;21.960;2022-09-29T03:29:43;12.10;90.30
68485;DHT22;55472;50.060;21.960;2022-09-29T03:32:09;12.00;90.40
68485;DHT22;55472;50.060;21.960;2022-09-29T03:34:35;12.00;90.70
68485;DHT22;55472;50.060;21.960;2022-09-29T03:37:02;12.00;90.90
68485;DHT22;55472;50.060;21.960;2022-09-29T03:39:28;12.00;90.90
68485;DHT22;55472;50.060;21.960;2022-09-29T03:41:55;12.00;91.10
68485;DHT22;55472;50.060;21.960;2022-09-29T03:44:21;12.00;90.80
68485;DHT22;55472;50.060;21.960;2022-09-29T03:46:47;11.90;90.90
68485;DHT22;55472;50.060;21.960;2022-09-29T03:49:13;11.90;91.20
68485;DHT22;55472;50.060;21.960;2022-09-29T03:51:41;12.00;91.20
68485;DHT22;55472;50.060;21.960;2022-09-29T03:54:07;12.00;91.20
68485;DHT22;55472;50.060;21.960;2022-09-29T03:56:34;11.90;91.00
68485;DHT22;55472;50.060;21.960;2022-09-29T03:59:01;11.90;91.10
68485;DHT22;55472;50.060;21.960;2022-09-29T04:01:30;11.90;91.20
68485;DHT22;55472;50.060;21.960;2022-09-29T04:03:57;11.90;91.20
68485;DHT22;55472;50.060;21.960;2022-09-29T04:06:23;11.90;90.90
68485;DHT22;55472;50.060;21.960;2022-09-29T04:08:49;11.90;90.70
68485;DHT22;55472;50.060;21.960;2022-09-29T04:11:15;11.90;90.60
68485;DHT22;55472;50.060;21.960;2022-09-29T04:13:41;11.90;90.30
68485;DHT22;55472;50.060;21.960;2022-09-29T04:16:07;11.80;90.30
68485;DHT22;55472;50.060;21.960;2022-09-29T04:18:33;11.80;90.30
68485;DHT22;55472;50.060;21.960;2022-09-29T04:21:03;11.80;90.50
68485;DHT22;55472;50.060;21.960;2022-09-29T04:23:30;11.80;90.70
68485;DHT22;55472;50.060;21.960;2022-09-29T04:25:56;11.80;90.60
68485;DHT22;55472;50.060;21.960;2022-09-29T04:28:23;11.80;90.30
68485;DHT22;55472;50.060;21.960;2022-09-29T04:30:50;11.80;90.80
68485;DHT22;55472;50.060;21.960;2022-09-29T04:33:16;11.80;91.00
68485;DHT22;55472;50.060;21.960;2022-09-29T04:35:42;11.80;90.80
68485;DHT22;55472;50.060;21.960;2022-09-29T04:38:08;11.80;90.50
68485;DHT22;55472;50.060;21.960;2022-09-29T04:40:35;11.70;90.20
68485;DHT22;55472;50.060;21.960;2022-09-29T04:43:02;11.60;90.00
68485;DHT22;55472;50.060;21.960;2022-09-29T04:45:30;11.60;91.00
68485;DHT22;55472;50.060;21.960;2022-09-29T04:47:56;11.60;91.20
68485;DHT22;55472;50.060;21.960;2022-09-29T04:50:23;11.50;91.90
68485;DHT22;55472;50.060;21.960;2022-09-29T04:52:49;11.50;91.70
68485;DHT22;55472;50.060;21.960;2022-09-29T04:55:15;11.50;92.00
68485;DHT22;55472;50.060;21.960;2022-09-29T04:57:42;11.60;92.10
68485;DHT22;55472;50.060;21.960;2022-09-29T05:00:12;11.60;91.80
68485;DHT22;55472;50.060;21.960;2022-09-29T05:02:38;11.60;91.90
68485;DHT22;55472;50.060;21.960;2022-09-29T05:05:05;11.60;92.20
68485;DHT22;55472;50.060;21.960;2022-09-29T05:07:35;11.60;92.20
68485;DHT22;55472;50.060;21.960;2022-09-29T05:10:06;11.70;92.10
68485;DHT22;55472;50.060;21.960;2022-09-29T05:12:34;11.70;91.80
68485;DHT22;55472;50.060;21.960;2022-09-29T05:15:00;11.70;91.80
68485;DHT22;55472;50.060;21.960;2022-09-29T05:17:27;11.70;91.80
68485;DHT22;55472;50.060;21.960;2022-09-29T05:19:55;11.70;91.60
68485;DHT22;55472;50.060;21.960;2022-09-29T05:22:21;11.80;91.70
68485;DHT22;55472;50.060;21.960;2022-09-29T05:24:53;11.80;91.70
68485;DHT22;55472;50.060;21.960;2022-09-29T05:27:26;11.80;91.70
68485;DHT22;55472;50.060;21.960;2022-09-29T05:29:52;11.80;91.90
68485;DHT22;55472;50.060;21.960;2022-09-29T05:32:18;11.80;91.80
68485;DHT22;55472;50.060;21.960;2022-09-29T05:34:53;11.80;91.90
68485;DHT22;55472;50.060;21.960;2022-09-29T05:37:20;11.80;91.90
68485;DHT22;55472;50.060;21.960;2022-09-29T05:39:46;11.80;91.50
68485;DHT22;55472;50.060;21.960;2022-09-29T05:42:12;11.80;91.50
68485;DHT22;55472;50.060;21.960;2022-09-29T05:44:38;11.80;91.80
68485;DHT22;55472;50.060;21.960;2022-09-29T05:47:08;11.80;91.90
68485;DHT22;55472;50.060;21.960;2022-09-29T05:49:48;11.80;92.10
68485;DHT22;55472;50.060;21.960;2022-09-29T05:52:14;11.80;92.10
68485;DHT22;55472;50.060;21.960;2022-09-29T05:54:40;11.80;92.20
68485;DHT22;55472;50.060;21.960;2022-09-29T05:57:10;11.80;92.20
68485;DHT22;55472;50.060;21.960;2022-09-29T06:00:17;11.80;92.20
68485;DHT22;55472;50.060;21.960;2022-09-29T06:02:43;11.80;92.20
68485;DHT22;55472;50.060;21.960;2022-09-29T06:05:10;11.80;92.40
68485;DHT22;55472;50.060;21.960;2022-09-29T06:07:36;11.80;92.50
68485;DHT22;55472;50.060;21.960;2022-09-29T06:10:03;11.80;92.50
68485;DHT22;55472;50.060;21.960;2022-09-29T06:12:35;11.90;92.40
68485;DHT22;55472;50.060;21.960;2022-09-29T06:15:05;11.90;92.40
68485;DHT22;55472;50.060;21.960;2022-09-29T06:17:32;11.90;92.40
68485;DHT22;55472;50.060;21.960;2022-09-29T06:19:59;11.90;92.20
68485;DHT22;55472;50.060;21.960;2022-09-29T06:22:26;11.90;92.10
68485;DHT22;55472;50.060;21.960;2022-09-29T06:24:53;11.90;92.40
68485;DHT22;55472;50.060;21.960;2022-09-29T06:27:20;11.90;92.30
68485;DHT22;55472;50.060;21.960;2022-09-29T06:29:46;12.00;92.20
68485;DHT22;55472;50.060;21.960;2022-09-29T06:32:13;11.90;92.00
68485;DHT22;55472;50.060;21.960;2022-09-29T06:34:39;12.00;92.20
68485;DHT22;55472;50.060;21.960;2022-09-29T06:37:26;12.00;92.20
68485;DHT22;55472;50.060;21.960;2022-09-29T06:40:03;12.00;92.40
68485;DHT22;55472;50.060;21.960;2022-09-29T06:42:31;12.00;92.80
68485;DHT22;55472;50.060;21.960;2022-09-29T06:44:58;12.10;92.80
68485;DHT22;55472;50.060;21.960;2022-09-29T06:47:24;12.10;93.00
68485;DHT22;55472;50.060;21.960;2022-09-29T06:49:51;12.10;92.80
68485;DHT22;55472;50.060;21.960;2022-09-29T06:52:20;12.10;92.70
68485;DHT22;55472;50.060;21.960;2022-09-29T06:54:47;12.20;92.70
68485;DHT22;55472;50.060;21.960;2022-09-29T06:57:14;12.20;92.60
68485;DHT22;55472;50.060;21.960;2022-09-29T06:59:40;12.20;92.80
68485;DHT22;55472;50.060;21.960;2022-09-29T07:02:08;12.20;92.50
68485;DHT22;55472;50.060;21.960;2022-09-29T07:04:36;12.20;92.10
68485;DHT22;55472;50.060;21.960;2022-09-29T07:07:03;12.30;91.70
68485;DHT22;55472;50.060;21.960;2022-09-29T07:09:29;12.20;91.50
68485;DHT22;55472;50.060;21.960;2022-09-29T07:11:56;12.20;91.60
68485;DHT22;55472;50.060;21.960;2022-09-29T07:14:23;12.20;91.60
68485;DHT22;55472;50.060;21.960;2022-09-29T07:16:50;12.20;91.20
68485;DHT22;55472;50.060;21.960;2022-09-29T07:19:28;12.20;90.80
68485;DHT22;55472;50.060;21.960;2022-09-29T07:21:54;12.20;90.20
68485;DHT22;55472;50.060;21.960;2022-09-29T07:24:20;12.20;90.70
68485;DHT22;55472;50.060;21.960;2022-09-29T07:26:46;12.20;91.10
68485;DHT22;55472;50.060;21.960;2022-09-29T07:29:13;12.20;91.30
68485;DHT22;55472;50.060;21.960;2022-09-29T07:31:43;12.20;91.40
68485;DHT22;55472;50.060;21.960;2022-09-29T07:34:18;12.20;91.30
68485;DHT22;55472;50.060;21.960;2022-09-29T07:36:45;12.20;91.40
68485;DHT22;55472;50.060;21.960;2022-09-29T07:39:11;12.20;91.20
68485;DHT22;55472;50.060;21.960;2022-09-29T07:41:37;12.20;91.40
68485;DHT22;55472;50.060;21.960;2022-09-29T07:44:04;12.20;91.60
68485;DHT22;55472;50.060;21.960;2022-09-29T07:46:30;12.10;90.80
68485;DHT22;55472;50.060;21.960;2022-09-29T07:48:57;12.10;91.50
68485;DHT22;55472;50.060;21.960;2022-09-29T07:51:23;12.10;91.40
68485;DHT22;55472;50.060;21.960;2022-09-29T07:53:50;12.10;91.60
68485;DHT22;55472;50.060;21.960;2022-09-29T07:56:20;12.00;91.40
68485;DHT22;55472;50.060;21.960;2022-09-29T07:58:48;12.00;91.20
68485;DHT22;55472;50.060;21.960;2022-09-29T08:01:16;12.00;91.00
68485;DHT22;55472;50.060;21.960;2022-09-29T08:03:52;12.00;91.00
68485;DHT22;55472;50.060;21.960;2022-09-29T08:06:21;12.00;91.00
68485;DHT22;55472;50.060;21.960;2022-09-29T08:08:53;12.00;90.70
68485;DHT22;55472;50.060;21.960;2022-09-29T08:11:22;12.00;90.50
68485;DHT22;55472;50.060;21.960;2022-09-29T08:13:51;12.00;90.20
68485;DHT22;55472;50.060;21.960;2022-09-29T08:16:21;12.00;90.00
68485;DHT22;55472;50.060;21.960;2022-09-29T08:18:48;11.90;90.00
68485;DHT22;55472;50.060;21.960;2022-09-29T08:21:15;11.90;90.00
68485;DHT22;55472;50.060;21.960;2022-09-29T08:23:42;11.90;89.10
68485;DHT22;55472;50.060;21.960;2022-09-29T08:26:15;11.90;88.70
68485;DHT22;55472;50.060;21.960;2022-09-29T08:28:43;11.80;88.60
68485;DHT22;55472;50.060;21.960;2022-09-29T08:31:14;11.80;88.50
68485;DHT22;55472;50.060;21.960;2022-09-29T08:33:47;11.80;88.20
68485;DHT22;55472;50.060;21.960;2022-09-29T08:36:18;11.70;88.40
68485;DHT22;55472;50.060;21.960;2022-09-29T08:38:50;11.70;87.80
68485;DHT22;55472;50.060;21.960;2022-09-29T08:46:56;11.50;88.00
68485;DHT22;55472;50.060;21.960;2022-09-29T08:49:56;11.50;88.30
68485;DHT22;55472;50.060;21.960;2022-09-29T08:52:38;11.50;88.00
68485;DHT22;55472;50.060;21.960;2022-09-29T08:55:21;11.50;88.20
68485;DHT22;55472;50.060;21.960;2022-09-29T08:57:57;11.50;88.80
68485;DHT22;55472;50.060;21.960;2022-09-29T09:00:46;11.40;89.20
68485;DHT22;55472;50.060;21.960;2022-09-29T09:09:32;11.40;89.20
68485;DHT22;55472;50.060;21.960;2022-09-29T09:25:09;11.40;90.30
68485;DHT22;55472;50.060;21.960;2022-09-29T09:28:02;11.40;89.90
68485;DHT22;55472;50.060;21.960;2022-09-29T09:30:46;11.50;90.20
68485;DHT22;55472;50.060;21.960;2022-09-29T09:33:38;11.50;90.20
68485;DHT22;55472;50.060;21.960;2022-09-29T09:36:13;11.50;90.30
68485;DHT22;55472;50.060;21.960;2022-09-29T09:41:19;11.50;90.30
68485;DHT22;55472;50.060;21.960;2022-09-29T09:43:52;11.50;89.80
68485;DHT22;55472;50.060;21.960;2022-09-29T09:46:58;11.50;89.80
68485;DHT22;55472;50.060;21.960;2022-09-29T09:49:30;11.50;90.40
68485;DHT22;55472;50.060;21.960;2022-09-29T09:52:08;11.50;90.20
68485;DHT22;55472;50.060;21.960;2022-09-29T09:54:40;11.60;90.20
68485;DHT22;55472;50.060;21.960;2022-09-29T10:00:12;11.60;90.50
68485;DHT22;55472;50.060;21.960;2022-09-29T10:02:46;11.60;90.10
68485;DHT22;55472;50.060;21.960;2022-09-29T10:05:22;11.60;89.50
68485;DHT22;55472;50.060;21.960;2022-09-29T10:07:52;11.60;89.40
68485;DHT22;55472;50.060;21.960;2022-09-29T10:10:21;11.60;89.00
68485;DHT22;55472;50.060;21.960;2022-09-29T10:13:09;11.60;88.30
68485;DHT22;55472;50.060;21.960;2022-09-29T10:15:55;11.60;87.80
68485;DHT22;55472;50.060;21.960;2022-09-29T10:18:42;11.50;87.90
68485;DHT22;55472;50.060;21.960;2022-09-29T10:21:33;11.50;88.60
68485;DHT22;55472;50.060;21.960;2022-09-29T10:24:02;11.50;88.80
68485;DHT22;55472;50.060;21.960;2022-09-29T10:29:30;11.60;89.50
68485;DHT22;55472;50.060;21.960;2022-09-29T10:32:13;11.70;88.70
68485;DHT22;55472;50.060;21.960;2022-09-29T10:34:53;11.60;88.80
68485;DHT22;55472;50.060;21.960;2022-09-29T10:37:41;11.70;88.90
68485;DHT22;55472;50.060;21.960;2022-09-29T10:42:37;11.70;89.60
68485;DHT22;55472;50.060;21.960;2022-09-29T10:45:19;11.70;89.50
68485;DHT22;55472;50.060;21.960;2022-09-29T10:50:28;11.70;88.80
68485;DHT22;55472;50.060;21.960;2022-09-29T10:53:00;11.80;89.60
68485;DHT22;55472;50.060;21.960;2022-09-29T10:55:34;11.80;89.70
68485;DHT22;55472;50.060;21.960;2022-09-29T10:58:22;11.80;89.60
68485;DHT22;55472;50.060;21.960;2022-09-29T11:01:02;11.80;89.30
68485;DHT22;55472;50.060;21.960;2022-09-29T11:03:33;11.80;88.90
68485;DHT22;55472;50.060;21.960;2022-09-29T11:06:08;11.80;89.50
68485;DHT22;55472;50.060;21.960;2022-09-29T11:08:59;11.80;88.50
68485;DHT22;55472;50.060;21.960;2022-09-29T11:16:53;11.80;89.10
68485;DHT22;55472;50.060;21.960;2022-09-29T11:19:21;11.70;88.60
68485;DHT22;55472;50.060;21.960;2022-09-29T11:30:19;11.80;90.50
68485;DHT22;55472;50.060;21.960;2022-09-29T11:33:20;11.80;90.10
68485;DHT22;55472;50.060;21.960;2022-09-29T11:36:01;11.80;90.20
68485;DHT22;55472;50.060;21.960;2022-09-29T11:42:09;11.80;90.10
68485;DHT22;55472;50.060;21.960;2022-09-29T11:45:02;11.90;90.10
68485;DHT22;55472;50.060;21.960;2022-09-29T11:54:22;11.90;90.30
68485;DHT22;55472;50.060;21.960;2022-09-29T11:57:00;12.00;90.40
68485;DHT22;55472;50.060;21.960;2022-09-29T12:05:40;12.10;91.10
68485;DHT22;55472;50.060;21.960;2022-09-29T12:14:14;12.20;90.70
68485;DHT22;55472;50.060;21.960;2022-09-29T12:16:56;12.20;90.80
68485;DHT22;55472;50.060;21.960;2022-09-29T12:19:30;12.20;90.60
68485;DHT22;55472;50.060;21.960;2022-09-29T12:22:02;12.20;90.40
68485;DHT22;55472;50.060;21.960;2022-09-29T12:24:35;12.30;90.30
68485;DHT22;55472;50.060;21.960;2022-09-29T12:27:18;12.20;90.50
68485;DHT22;55472;50.060;21.960;2022-09-29T12:29:52;12.20;90.90
68485;DHT22;55472;50.060;21.960;2022-09-29T12:32:38;12.20;90.90
68485;DHT22;55472;50.060;21.960;2022-09-29T12:35:21;12.20;90.70
68485;DHT22;55472;50.060;21.960;2022-09-29T12:43:44;12.20;90.90
68485;DHT22;55472;50.060;21.960;2022-09-29T12:51:50;12.20;91.20
68485;DHT22;55472;50.060;21.960;2022-09-29T12:54:44;12.20;91.40
68485;DHT22;55472;50.060;21.960;2022-09-29T12:57:16;12.20;91.80
68485;DHT22;55472;50.060;21.960;2022-09-29T13:00:01;12.20;91.70
68485;DHT22;55472;50.060;21.960;2022-09-29T13:02:52;12.20;91.30
68485;DHT22;55472;50.060;21.960;2022-09-29T13:11:49;12.20;91.20
68485;DHT22;55472;50.060;21.960;2022-09-29T13:20:33;12.10;91.10
68485;DHT22;55472;50.060;21.960;2022-09-29T13:23:41;12.00;91.40
68485;DHT22;55472;50.060;21.960;2022-09-29T13:29:21;12.00;92.00
68485;DHT22;55472;50.060;21.960;2022-09-29T13:31:50;12.00;92.20
68485;DHT22;55472;50.060;21.960;2022-09-29T13:37:12;12.00;91.90
68485;DHT22;55472;50.060;21.960;2022-09-29T13:39:42;12.00;91.70
68485;DHT22;55472;50.060;21.960;2022-09-29T13:47:56;11.90;91.60
68485;DHT22;55472;50.060;21.960;2022-09-29T13:50:50;11.90;92.00
68485;DHT22;55472;50.060;21.960;2022-09-29T15:15:26;11.40;92.50
68485;DHT22;55472;50.060;21.960;2022-09-29T15:30:38;11.30;92.80
68485;DHT22;55472;50.060;21.960;2022-09-29T15:33:24;11.30;93.20
68485;DHT22;55472;50.060;21.960;2022-09-29T15:36:02;11.30;93.30
68485;DHT22;55472;50.060;21.960;2022-09-29T15:38:37;11.30;93.30
68485;DHT22;55472;50.060;21.960;2022-09-29T15:41:16;11.30;93.20
68485;DHT22;55472;50.060;21.960;2022-09-29T15:44:01;11.30;93.20
68485;DHT22;55472;50.060;21.960;2022-09-29T15:46:50;11.30;92.90
68485;DHT22;55472;50.060;21.960;2022-09-29T15:50:40;11.30;92.80
68485;DHT22;55472;50.060;21.960;2022-09-29T17:41:00;11.10;94.60
68485;DHT22;55472;50.060;21.960;2022-09-29T17:43:27;11.00;94.70
68485;DHT22;55472;50.060;21.960;2022-09-29T17:45:56;11.00;94.80
68485;DHT22;55472;50.060;21.960;2022-09-29T17:48:24;11.00;94.60
68485;DHT22;55472;50.060;21.960;2022-09-29T17:50:53;11.00;94.90
68485;DHT22;55472;50.060;21.960;2022-09-29T17:53:21;11.00;94.80
68485;DHT22;55472;50.060;21.960;2022-09-29T17:55:50;11.00;94.80
68485;DHT22;55472;50.060;21.960;2022-09-29T17:58:20;11.00;94.70
68485;DHT22;55472;50.060;21.960;2022-09-29T18:00:49;11.00;94.90
68485;DHT22;55472;50.060;21.960;2022-09-29T18:03:18;11.00;95.20
68485;DHT22;55472;50.060;21.960;2022-09-29T18:05:47;11.00;95.00
68485;DHT22;55472;50.060;21.960;2022-09-29T18:08:20;10.90;95.30
68485;DHT22;55472;50.060;21.960;2022-09-29T18:10:59;11.00;95.30
68485;DHT22;55472;50.060;21.960;2022-09-29T18:13:27;11.00;95.40
68485;DHT22;55472;50.060;21.960;2022-09-29T18:15:58;11.00;95.20
68485;DHT22;55472;50.060;21.960;2022-09-29T18:18:25;10.90;94.30
68485;DHT22;55472;50.060;21.960;2022-09-29T18:20:51;10.80;94.90
68485;DHT22;55472;50.060;21.960;2022-09-29T18:23:18;10.80;95.70
68485;DHT22;55472;50.060;21.960;2022-09-29T18:25:51;10.90;95.50
68485;DHT22;55472;50.060;21.960;2022-09-29T18:28:20;10.80;95.50
68485;DHT22;55472;50.060;21.960;2022-09-29T18:30:53;10.90;95.50
68485;DHT22;55472;50.060;21.960;2022-09-29T18:33:28;10.90;95.30
68485;DHT22;55472;50.060;21.960;2022-09-29T18:36:04;10.90;95.00
68485;DHT22;55472;50.060;21.960;2022-09-29T18:38:31;10.90;94.80
68485;DHT22;55472;50.060;21.960;2022-09-29T18:40:57;10.90;94.60
68485;DHT22;55472;50.060;21.960;2022-09-29T18:43:24;10.90;94.50
68485;DHT22;55472;50.060;21.960;2022-09-29T18:45:54;10.90;94.50
68485;DHT22;55472;50.060;21.960;2022-09-29T18:48:20;10.90;94.60
68485;DHT22;55472;50.060;21.960;2022-09-29T18:50:49;10.90;94.80
68485;DHT22;55472;50.060;21.960;2022-09-29T18:53:18;10.90;95.00
68485;DHT22;55472;50.060;21.960;2022-09-29T18:55:46;10.90;94.90
68485;DHT22;55472;50.060;21.960;2022-09-29T18:58:18;10.90;94.50
68485;DHT22;55472;50.060;21.960;2022-09-29T19:00:48;10.90;94.80
68485;DHT22;55472;50.060;21.960;2022-09-29T19:03:16;10.90;94.80
68485;DHT22;55472;50.060;21.960;2022-09-29T19:05:46;10.90;95.00
68485;DHT22;55472;50.060;21.960;2022-09-29T19:08:17;10.90;95.10
68485;DHT22;55472;50.060;21.960;2022-09-29T19:10:54;10.90;95.10
68485;DHT22;55472;50.060;21.960;2022-09-29T19:13:23;10.90;94.90
68485;DHT22;55472;50.060;21.960;2022-09-29T19:15:49;10.90;94.90
68485;DHT22;55472;50.060;21.960;2022-09-29T19:18:21;10.90;94.80
68485;DHT22;55472;50.060;21.960;2022-09-29T19:20:54;10.90;94.80
68485;DHT22;55472;50.060;21.960;2022-09-29T19:23:22;10.90;94.90
68485;DHT22;55472;50.060;21.960;2022-09-29T19:25:50;10.90;95.00
68485;DHT22;55472;50.060;21.960;2022-09-29T19:28:18;10.90;95.00
68485;DHT22;55472;50.060;21.960;2022-09-29T19:30:46;10.90;94.70
68485;DHT22;55472;50.060;21.960;2022-09-29T19:33:16;10.90;95.30
68485;DHT22;55472;50.060;21.960;2022-09-29T19:35:47;10.90;94.80
68485;DHT22;55472;50.060;21.960;2022-09-29T19:38:16;10.90;94.90
68485;DHT22;55472;50.060;21.960;2022-09-29T19:40:44;10.90;95.00
68485;DHT22;55472;50.060;21.960;2022-09-29T19:43:11;10.90;95.00
68485;DHT22;55472;50.060;21.960;2022-09-29T19:45:39;10.90;95.40
68485;DHT22;55472;50.060;21.960;2022-09-29T19:48:07;10.90;95.50
68485;DHT22;55472;50.060;21.960;2022-09-29T19:50:36;10.90;95.50
68485;DHT22;55472;50.060;21.960;2022-09-29T19:53:21;10.90;95.50
68485;DHT22;55472;50.060;21.960;2022-09-29T19:55:47;10.90;95.30
68485;DHT22;55472;50.060;21.960;2022-09-29T19:58:13;10.90;95.50
68485;DHT22;55472;50.060;21.960;2022-09-29T20:00:39;10.90;95.30
68485;DHT22;55472;50.060;21.960;2022-09-29T20:03:06;10.90;95.70
68485;DHT22;55472;50.060;21.960;2022-09-29T20:05:33;10.80;96.20
68485;DHT22;55472;50.060;21.960;2022-09-29T20:07:59;10.80;95.90
68485;DHT22;55472;50.060;21.960;2022-09-29T20:10:27;10.80;96.60
68485;DHT22;55472;50.060;21.960;2022-09-29T20:12:54;10.80;96.70
68485;DHT22;55472;50.060;21.960;2022-09-29T20:15:21;10.80;96.60
68485;DHT22;55472;50.060;21.960;2022-09-29T20:17:48;10.90;96.30
68485;DHT22;55472;50.060;21.960;2022-09-29T20:20:15;10.80;96.30
68485;DHT22;55472;50.060;21.960;2022-09-29T20:22:44;10.80;96.30
68485;DHT22;55472;50.060;21.960;2022-09-29T20:25:10;10.80;96.40
68485;DHT22;55472;50.060;21.960;2022-09-29T20:27:37;10.90;96.30
68485;DHT22;55472;50.060;21.960;2022-09-29T20:30:05;10.90;96.20
68485;DHT22;55472;50.060;21.960;2022-09-29T20:32:32;10.90;95.70
68485;DHT22;55472;50.060;21.960;2022-09-29T20:34:58;10.90;95.40
68485;DHT22;55472;50.060;21.960;2022-09-29T20:37:24;10.90;95.30
68485;DHT22;55472;50.060;21.960;2022-09-29T20:39:52;10.90;95.60
68485;DHT22;55472;50.060;21.960;2022-09-29T20:42:20;10.80;95.40
68485;DHT22;55472;50.060;21.960;2022-09-29T20:44:46;10.90;95.60
68485;DHT22;55472;50.060;21.960;2022-09-29T20:47:16;10.90;95.50
68485;DHT22;55472;50.060;21.960;2022-09-29T20:49:43;10.90;95.40
68485;DHT22;55472;50.060;21.960;2022-09-29T20:52:10;10.80;95.40
68485;DHT22;55472;50.060;21.960;2022-09-29T20:54:36;10.80;95.00
68485;DHT22;55472;50.060;21.960;2022-09-29T20:57:02;10.80;95.40
68485;DHT22;55472;50.060;21.960;2022-09-29T20:59:28;10.80;95.30
68485;DHT22;55472;50.060;21.960;2022-09-29T21:01:57;10.80;95.50
68485;DHT22;55472;50.060;21.960;2022-09-29T21:04:24;10.80;95.30
68485;DHT22;55472;50.060;21.960;2022-09-29T21:06:51;10.80;95.00
68485;DHT22;55472;50.060;21.960;2022-09-29T21:09:19;10.80;94.40
68485;DHT22;55472;50.060;21.960;2022-09-29T21:11:47;10.80;95.00
68485;DHT22;55472;50.060;21.960;2022-09-29T21:14:16;10.80;95.20
68485;DHT22;55472;50.060;21.960;2022-09-29T21:16:45;10.80;95.40
68485;DHT22;55472;50.060;21.960;2022-09-29T21:19:13;10.90;95.60
68485;DHT22;55472;50.060;21.960;2022-09-29T21:21:40;10.90;95.30
68485;DHT22;55472;50.060;21.960;2022-09-29T21:24:08;10.80;95.10
68485;DHT22;55472;50.060;21.960;2022-09-29T21:26:36;10.90;95.00